Clack, Mississippi
Current Conditions -  °F | °C
As of 4:15 PM on Friday 24 Oct 2014 (Local Time) from KUTA Reporting Station
Clear Clear  
Wind Chill: 73°   Ceiling: Unl
Heat Index: 73°   Visibility: 10mi
Dew Point: 52°   Wind: 8mph
Humidity: 47%   Direction: 270°W
Pressure: 30.09"   Gusts: NA
Location:  34.8092°N, 90.3159°W
Report Text: KUTA 242115Z AUTO 27007KT 10SM CLR 23/11 A3009 RMK AO2
Loading
Personal Weather Stations






























Interactive Weather Map
Tropical Storm Tracking
New forecast layout! Learn more

10-Day Weather Forecast

Advertisements
Track Severe Weather on mobile